createdAt,value
2018-06-18T00:03:02.501Z,17.00
2018-06-18T00:05:30.887Z,16.90
2018-06-18T00:07:59.302Z,17.00
2018-06-18T00:10:27.714Z,17.10
2018-06-18T00:12:56.114Z,17.10
2018-06-18T00:15:24.471Z,17.00
2018-06-18T00:17:52.910Z,17.00
2018-06-18T00:20:21.350Z,17.00
2018-06-18T00:22:50.441Z,17.00
2018-06-18T00:25:18.848Z,17.00
2018-06-18T00:27:47.228Z,17.00
2018-06-18T00:30:15.609Z,16.80
2018-06-18T00:32:43.995Z,16.80
2018-06-18T00:35:12.388Z,16.90
2018-06-18T00:37:40.749Z,16.90
2018-06-18T00:40:09.173Z,16.90
2018-06-18T00:42:37.645Z,16.90
2018-06-18T00:45:06.065Z,16.90
2018-06-18T00:47:34.688Z,16.90
2018-06-18T00:50:03.056Z,16.90
2018-06-18T00:52:31.889Z,16.80
2018-06-18T00:55:00.342Z,16.70
2018-06-18T00:57:28.791Z,16.70
2018-06-18T00:59:57.186Z,16.70
2018-06-18T01:02:25.578Z,16.80
2018-06-18T01:04:53.996Z,16.70
2018-06-18T01:07:22.400Z,16.70
2018-06-18T01:09:50.769Z,16.80
2018-06-18T01:12:19.142Z,16.80
2018-06-18T01:14:47.576Z,16.90
2018-06-18T01:17:15.971Z,16.90
2018-06-18T01:19:44.345Z,16.90
2018-06-18T01:22:12.754Z,16.90
2018-06-18T01:24:47.425Z,16.80
2018-06-18T01:27:15.849Z,16.80
2018-06-18T01:29:44.214Z,16.70
2018-06-18T01:32:12.600Z,16.70
2018-06-18T01:34:41.017Z,16.70
2018-06-18T01:37:09.447Z,16.60
2018-06-18T01:39:37.818Z,16.60
2018-06-18T01:42:06.209Z,16.60
2018-06-18T01:44:34.581Z,16.50
2018-06-18T01:47:02.998Z,16.60
2018-06-18T01:49:32.110Z,16.60
2018-06-18T01:52:00.463Z,16.60
2018-06-18T01:54:28.900Z,16.60
2018-06-18T01:56:57.354Z,16.60
2018-06-18T01:59:25.793Z,16.60
2018-06-18T02:01:54.505Z,16.60
2018-06-18T02:04:22.887Z,16.60
2018-06-18T02:06:51.244Z,16.50
2018-06-18T02:09:19.614Z,16.60
2018-06-18T02:11:48.045Z,16.60
2018-06-18T02:14:16.398Z,16.70
2018-06-18T02:16:44.794Z,16.70
2018-06-18T02:19:13.217Z,16.50
2018-06-18T02:21:41.576Z,16.60
2018-06-18T02:24:09.945Z,16.60
2018-06-18T02:26:38.376Z,16.60
2018-06-18T02:29:12.228Z,16.60
2018-06-18T02:33:47.507Z,16.60
2018-06-18T02:36:21.221Z,16.60
2018-06-18T02:38:54.990Z,16.60
2018-06-18T02:41:23.506Z,16.50
2018-06-18T02:43:52.372Z,16.50
2018-06-18T02:46:20.746Z,16.50
2018-06-18T02:48:49.178Z,16.50
2018-06-18T02:51:17.569Z,16.50
2018-06-18T02:53:45.966Z,16.50
2018-06-18T02:56:14.450Z,16.50
2018-06-18T02:58:42.819Z,16.60
2018-06-18T03:01:12.017Z,16.50
2018-06-18T03:03:40.411Z,16.50
2018-06-18T03:06:08.761Z,16.50
2018-06-18T03:08:37.150Z,16.50
2018-06-18T03:11:05.631Z,16.60
2018-06-18T03:13:34.096Z,16.50
2018-06-18T03:16:02.506Z,16.60
2018-06-18T03:18:36.219Z,16.50
2018-06-18T03:21:09.842Z,16.50
2018-06-18T03:23:43.522Z,16.50
2018-06-18T03:26:17.262Z,16.50
2018-06-18T03:28:50.909Z,16.50
2018-06-18T03:31:19.618Z,16.50
2018-06-18T03:33:48.024Z,16.50
2018-06-18T03:36:16.423Z,16.50
2018-06-18T03:38:44.833Z,16.40
2018-06-18T03:41:13.194Z,16.40
2018-06-18T03:43:45.938Z,16.50
2018-06-18T03:46:14.394Z,16.50
2018-06-18T03:48:42.737Z,16.50
2018-06-18T03:51:11.127Z,16.40
2018-06-18T03:53:39.571Z,16.50
2018-06-18T03:56:08.004Z,16.40
2018-06-18T03:58:36.417Z,16.50
2018-06-18T04:01:26.717Z,16.40
2018-06-18T04:04:03.470Z,16.40
2018-06-18T04:06:37.261Z,16.50
2018-06-18T04:09:12.842Z,16.50
2018-06-18T04:11:47.062Z,16.40
2018-06-18T04:14:15.776Z,16.40
2018-06-18T04:16:44.224Z,16.40
2018-06-18T04:19:12.640Z,16.30
2018-06-18T04:21:41.030Z,16.30
2018-06-18T04:24:09.446Z,16.30
2018-06-18T04:26:37.920Z,16.40
2018-06-18T04:29:06.342Z,16.40
2018-06-18T04:31:34.720Z,16.50
2018-06-18T04:35:12.415Z,16.60
2018-06-18T04:37:40.847Z,16.50
2018-06-18T04:40:09.537Z,16.50
2018-06-18T04:42:43.296Z,16.60
2018-06-18T04:45:16.925Z,16.60
2018-06-18T04:47:50.576Z,16.60
2018-06-18T04:50:24.284Z,16.60
2018-06-18T04:52:52.689Z,16.60
2018-06-18T04:55:21.140Z,16.70
2018-06-18T04:57:49.546Z,16.70
2018-06-18T05:00:24.004Z,16.70
2018-06-18T05:02:52.405Z,16.90
2018-06-18T05:05:20.814Z,16.90
2018-06-18T05:07:53.004Z,17.00
2018-06-18T05:10:26.603Z,17.00
2018-06-18T05:12:55.275Z,17.10
2018-06-18T05:15:27.985Z,17.10
2018-06-18T05:17:56.381Z,17.20
2018-06-18T05:20:24.859Z,17.20
2018-06-18T05:22:53.316Z,17.30
2018-06-18T05:25:21.729Z,17.30
2018-06-18T05:27:50.141Z,17.30
2018-06-18T05:30:22.258Z,17.10
2018-06-18T05:32:50.701Z,17.10
2018-06-18T05:35:19.174Z,17.10
2018-06-18T05:38:23.675Z,17.10
2018-06-18T05:40:52.166Z,17.10
2018-06-18T05:45:48.672Z,17.10
2018-06-18T05:48:17.089Z,17.20
2018-06-18T05:50:45.551Z,17.20
2018-06-18T05:53:14.241Z,17.20
2018-06-18T05:55:42.773Z,17.30
2018-06-18T05:58:11.141Z,17.50
2018-06-18T06:00:40.016Z,17.90
2018-06-18T06:03:08.582Z,17.90
2018-06-18T06:05:36.966Z,18.00
2018-06-18T06:08:05.418Z,18.20
2018-06-18T06:10:33.861Z,18.20
2018-06-18T06:13:02.332Z,18.20
2018-06-18T06:15:30.709Z,18.20
2018-06-18T06:17:59.128Z,18.10
2018-06-18T06:20:27.673Z,18.00
2018-06-18T06:22:56.846Z,17.90
2018-06-18T06:25:25.440Z,17.90
2018-06-18T06:27:53.871Z,18.10
2018-06-18T06:30:22.236Z,18.20
2018-06-18T06:32:50.605Z,18.20
2018-06-18T06:37:49.617Z,18.30
2018-06-18T06:40:18.098Z,18.30
2018-06-18T06:42:46.502Z,18.40
2018-06-18T06:45:14.878Z,18.40
2018-06-18T06:47:43.311Z,18.30
2018-06-18T06:50:11.771Z,18.40
2018-06-18T06:52:40.183Z,18.60
2018-06-18T06:55:08.665Z,18.80
2018-06-18T06:57:37.897Z,18.80
2018-06-18T07:00:06.951Z,18.70
2018-06-18T07:02:35.343Z,18.50
2018-06-18T07:05:03.987Z,18.40
2018-06-18T07:07:32.971Z,18.40
2018-06-18T07:10:01.824Z,18.40
2018-06-18T07:12:30.341Z,18.50
2018-06-18T07:14:59.310Z,18.60
2018-06-18T07:17:27.857Z,18.60
2018-06-18T07:19:56.315Z,18.80
2018-06-18T07:22:24.759Z,18.80
2018-06-18T07:24:53.155Z,18.90
2018-06-18T07:27:21.560Z,18.80
2018-06-18T07:29:49.929Z,18.80
2018-06-18T07:32:18.334Z,18.80
2018-06-18T07:34:46.757Z,18.80
2018-06-18T07:37:15.204Z,18.80
2018-06-18T07:39:43.726Z,18.70
2018-06-18T07:42:12.097Z,18.80
2018-06-18T07:44:40.484Z,18.70
2018-06-18T07:47:08.962Z,18.80
2018-06-18T07:49:37.339Z,18.90
2018-06-18T07:52:05.878Z,19.10
2018-06-18T07:54:34.326Z,19.10
2018-06-18T07:57:02.679Z,19.20
2018-06-18T07:59:31.180Z,19.30
2018-06-18T08:01:59.573Z,19.20
2018-06-18T08:04:28.024Z,19.20
2018-06-18T08:06:56.463Z,19.20
2018-06-18T08:09:24.878Z,19.10
2018-06-18T08:11:53.261Z,19.10
2018-06-18T08:14:21.649Z,18.90
2018-06-18T08:16:50.053Z,18.80
2018-06-18T08:19:18.545Z,18.80
2018-06-18T08:21:46.876Z,18.60
2018-06-18T08:24:15.292Z,18.40
2018-06-18T08:26:43.684Z,18.30
2018-06-18T08:29:12.081Z,18.30
2018-06-18T08:31:40.457Z,18.10
2018-06-18T08:34:08.912Z,18.20
2018-06-18T08:36:37.301Z,18.30
2018-06-18T08:39:08.165Z,18.20
2018-06-18T08:41:36.569Z,18.20
2018-06-18T08:44:04.955Z,18.30
2018-06-18T08:46:33.377Z,18.30
2018-06-18T08:49:03.742Z,18.20
2018-06-18T08:51:37.424Z,18.30
2018-06-18T08:56:18.545Z,18.30
2018-06-18T08:58:52.195Z,18.50
2018-06-18T09:01:24.773Z,18.60
2018-06-18T09:03:57.409Z,18.40
2018-06-18T09:06:32.853Z,18.50
2018-06-18T09:09:01.769Z,18.30
2018-06-18T09:11:30.215Z,18.50
2018-06-18T09:13:58.576Z,18.40
2018-06-18T09:16:26.974Z,18.30
2018-06-18T09:18:55.435Z,18.60
2018-06-18T09:23:52.171Z,18.40
2018-06-18T09:26:20.623Z,18.60
2018-06-18T09:28:49.002Z,18.70
2018-06-18T09:31:17.533Z,18.60
2018-06-18T09:33:46.012Z,18.50
2018-06-18T09:36:14.604Z,18.50
2018-06-18T09:38:43.037Z,18.50
2018-06-18T09:41:11.403Z,18.60
2018-06-18T09:43:39.844Z,18.70
2018-06-18T09:46:08.220Z,18.70
2018-06-18T09:48:41.959Z,18.90
2018-06-18T09:51:15.844Z,19.00
2018-06-18T09:53:49.423Z,19.10
2018-06-18T09:56:23.064Z,19.20
2018-06-18T09:58:56.774Z,19.00
2018-06-18T10:01:30.528Z,18.90
2018-06-18T10:03:59.631Z,18.70
2018-06-18T10:06:28.906Z,18.90
2018-06-18T10:09:01.658Z,19.00
2018-06-18T10:11:30.186Z,19.20
2018-06-18T10:13:58.623Z,19.00
2018-06-18T10:16:27.017Z,19.20
2018-06-18T10:18:55.405Z,19.10
2018-06-18T10:21:23.826Z,19.20
2018-06-18T10:23:52.307Z,19.30
2018-06-18T10:26:20.677Z,19.40
2018-06-18T10:28:49.064Z,19.50
2018-06-18T10:31:17.765Z,19.30
2018-06-18T10:33:51.440Z,19.30
2018-06-18T10:36:25.245Z,19.40
2018-06-18T10:38:59.073Z,19.30
2018-06-18T10:41:32.872Z,19.20
2018-06-18T10:44:01.366Z,19.10
2018-06-18T10:46:29.733Z,19.30
2018-06-18T10:48:58.209Z,19.10
2018-06-18T10:51:26.592Z,19.10
2018-06-18T10:53:55.012Z,19.10
2018-06-18T10:56:23.547Z,18.90
2018-06-18T10:58:51.901Z,18.60
2018-06-18T11:01:24.931Z,18.70
2018-06-18T11:03:53.700Z,18.80
2018-06-18T11:06:27.497Z,18.90
2018-06-18T11:08:55.988Z,18.80
2018-06-18T11:11:24.413Z,18.80
2018-06-18T11:13:52.810Z,18.80
2018-06-18T11:16:21.358Z,18.90
2018-06-18T11:18:54.882Z,18.80
2018-06-18T11:21:28.560Z,18.80
2018-06-18T11:24:02.290Z,18.90
2018-06-18T11:26:35.924Z,18.80
2018-06-18T11:31:32.416Z,18.80
2018-06-18T11:34:00.823Z,18.70
2018-06-18T11:36:29.273Z,18.60
2018-06-18T11:38:57.683Z,18.60
2018-06-18T11:41:26.506Z,18.60
2018-06-18T11:43:54.887Z,18.60
2018-06-18T11:48:51.609Z,18.70
2018-06-18T11:51:20.030Z,18.80
2018-06-18T11:56:16.554Z,19.10
2018-06-18T11:58:50.187Z,19.50
2018-06-18T12:01:24.083Z,20.00
2018-06-18T12:03:57.801Z,20.30
2018-06-18T12:06:31.453Z,20.80
2018-06-18T12:09:05.223Z,21.10
2018-06-18T12:11:33.649Z,21.10
2018-06-18T12:14:02.097Z,20.90
2018-06-18T12:16:34.462Z,20.90
2018-06-18T12:19:03.220Z,20.90
2018-06-18T12:21:31.629Z,20.80
2018-06-18T12:24:00.425Z,20.50
2018-06-18T12:26:28.829Z,19.90
2018-06-18T12:28:57.319Z,20.10
2018-06-18T12:31:25.801Z,20.30
2018-06-18T12:33:54.167Z,20.50
2018-06-18T12:36:22.575Z,20.40
2018-06-18T12:38:51.129Z,20.50
2018-06-18T12:41:19.603Z,20.40
2018-06-18T12:43:51.035Z,20.50
2018-06-18T12:46:24.762Z,20.80
2018-06-18T12:48:58.437Z,20.70
2018-06-18T12:51:32.245Z,20.80
2018-06-18T12:54:05.988Z,21.00
2018-06-18T12:56:39.664Z,20.90
2018-06-18T13:04:07.239Z,21.10
2018-06-18T13:06:35.623Z,21.10
2018-06-18T13:09:06.001Z,20.90
2018-06-18T13:11:34.389Z,20.80
2018-06-18T13:14:02.831Z,21.10
2018-06-18T13:16:31.212Z,20.90
2018-06-18T13:18:59.719Z,20.90
2018-06-18T13:21:28.228Z,20.90
2018-06-18T13:23:56.618Z,21.00
2018-06-18T13:26:25.083Z,21.00
2018-06-18T13:28:53.465Z,21.00
2018-06-18T13:31:21.849Z,21.00
2018-06-18T13:33:50.252Z,21.10
2018-06-18T13:36:18.650Z,21.10
2018-06-18T13:38:52.341Z,20.90
2018-06-18T13:41:26.028Z,20.80
2018-06-18T13:43:59.569Z,20.80
2018-06-18T13:46:33.165Z,20.80
2018-06-18T13:49:01.554Z,20.70
2018-06-18T13:51:29.970Z,20.70
2018-06-18T13:53:58.398Z,20.50
2018-06-18T13:56:26.811Z,20.60
2018-06-18T13:58:55.454Z,20.90
2018-06-18T14:01:24.024Z,21.30
2018-06-18T14:03:52.484Z,21.50
2018-06-18T14:06:20.846Z,21.60
2018-06-18T14:08:49.278Z,21.50
2018-06-18T14:11:17.664Z,21.50
2018-06-18T14:13:46.135Z,21.70
2018-06-18T14:16:14.506Z,21.60
2018-06-18T14:18:42.898Z,21.60
2018-06-18T14:21:11.334Z,21.70
2018-06-18T14:23:40.225Z,21.80
2018-06-18T14:26:08.595Z,21.40
2018-06-18T14:28:37.040Z,21.10
2018-06-18T14:31:10.930Z,21.10
2018-06-18T14:33:44.711Z,21.10
2018-06-18T14:36:18.528Z,21.00
2018-06-18T14:41:20.532Z,20.90
2018-06-18T14:43:48.923Z,20.70
2018-06-18T14:46:17.455Z,20.70
2018-06-18T14:48:46.629Z,20.80
2018-06-18T14:51:15.050Z,21.20
2018-06-18T14:53:43.466Z,21.60
2018-06-18T14:56:18.745Z,21.70
2018-06-18T14:59:08.343Z,21.60
2018-06-18T15:01:36.736Z,21.60
2018-06-18T15:04:05.201Z,21.40
2018-06-18T15:06:33.525Z,21.30
2018-06-18T15:09:02.127Z,21.40
2018-06-18T15:11:30.366Z,21.30
2018-06-18T15:13:58.858Z,21.40
2018-06-18T15:16:30.661Z,21.30
2018-06-18T15:19:00.199Z,21.60
2018-06-18T15:21:30.072Z,21.60
2018-06-18T15:23:59.984Z,22.10
2018-06-18T15:26:28.484Z,22.30
2018-06-18T15:28:56.957Z,22.30
2018-06-18T15:31:25.317Z,22.40
2018-06-18T15:33:53.707Z,22.40
2018-06-18T15:36:22.229Z,22.20
2018-06-18T15:38:50.618Z,21.80
2018-06-18T15:41:19.169Z,21.80
2018-06-18T15:43:47.617Z,21.60
2018-06-18T15:46:15.965Z,21.60
2018-06-18T15:48:44.377Z,21.70
2018-06-18T15:51:12.872Z,21.60
2018-06-18T15:53:41.289Z,21.50
2018-06-18T15:58:38.205Z,21.80
2018-06-18T16:01:06.659Z,21.90
2018-06-18T16:03:35.542Z,22.10
2018-06-18T16:06:03.994Z,21.80
2018-06-18T16:08:32.455Z,21.70
2018-06-18T16:11:00.890Z,21.50
2018-06-18T16:15:57.336Z,21.40
2018-06-18T16:20:54.707Z,21.00
2018-06-18T16:23:23.286Z,21.10
2018-06-18T16:25:51.805Z,21.20
2018-06-18T16:28:20.213Z,21.20
2018-06-18T16:30:48.602Z,21.20
2018-06-18T16:33:16.999Z,21.20
2018-06-18T16:35:45.430Z,21.20
2018-06-18T16:38:13.852Z,21.10
2018-06-18T16:40:42.316Z,21.20
2018-06-18T16:43:10.675Z,21.10
2018-06-18T16:45:39.066Z,21.00
2018-06-18T16:48:07.498Z,20.80
2018-06-18T16:50:36.105Z,20.80
2018-06-18T16:53:04.514Z,20.60
2018-06-18T16:55:33.337Z,20.70
2018-06-18T16:58:01.733Z,20.70
2018-06-18T17:00:30.188Z,20.80
2018-06-18T17:02:58.623Z,20.60
2018-06-18T17:05:27.000Z,20.60
2018-06-18T17:07:55.360Z,20.60
2018-06-18T17:10:24.233Z,20.70
2018-06-18T17:12:52.574Z,20.70
2018-06-18T17:15:20.956Z,20.70
2018-06-18T17:17:49.586Z,20.70
2018-06-18T17:20:18.069Z,20.70
2018-06-18T17:22:46.448Z,20.70
2018-06-18T17:25:14.943Z,20.70
2018-06-18T17:27:43.403Z,20.60
2018-06-18T17:30:11.870Z,20.60
2018-06-18T17:32:40.690Z,20.70
2018-06-18T17:35:09.168Z,20.70
2018-06-18T17:37:38.390Z,20.70
2018-06-18T17:40:06.834Z,20.70
2018-06-18T17:42:35.660Z,20.60
2018-06-18T17:45:04.546Z,20.60
2018-06-18T17:47:32.938Z,20.50
2018-06-18T17:50:02.651Z,20.60
2018-06-18T17:52:32.641Z,20.70
2018-06-18T17:55:01.094Z,20.60
2018-06-18T17:57:29.515Z,20.50
2018-06-18T17:59:57.939Z,20.60
2018-06-18T18:02:31.718Z,20.60
2018-06-18T18:05:00.269Z,20.50
2018-06-18T18:07:29.401Z,20.50
2018-06-18T18:09:58.300Z,20.60
2018-06-18T18:12:26.686Z,20.70
2018-06-18T18:14:55.106Z,20.60
2018-06-18T18:17:23.539Z,20.60
2018-06-18T18:19:51.956Z,20.60
2018-06-18T18:22:20.357Z,20.40
2018-06-18T18:24:48.812Z,20.30
2018-06-18T18:27:17.314Z,20.30
2018-06-18T18:29:45.713Z,20.20
2018-06-18T18:32:14.131Z,20.20
2018-06-18T18:34:42.547Z,20.20
2018-06-18T18:37:11.227Z,20.20
2018-06-18T18:39:39.643Z,20.10
2018-06-18T18:42:08.313Z,20.20
2018-06-18T18:44:36.738Z,20.10
2018-06-18T18:49:33.680Z,20.10
2018-06-18T18:52:02.074Z,20.20
2018-06-18T18:55:45.197Z,20.20
2018-06-18T18:58:24.944Z,20.30
2018-06-18T19:00:53.563Z,20.20
2018-06-18T19:03:24.707Z,20.10
2018-06-18T19:05:53.973Z,20.20
2018-06-18T19:08:26.673Z,20.20
2018-06-18T19:10:55.983Z,20.30
2018-06-18T19:13:27.829Z,20.20
2018-06-18T19:15:56.830Z,20.20
2018-06-18T19:18:25.272Z,20.10
2018-06-18T19:20:58.731Z,20.00
2018-06-18T19:23:27.213Z,19.90
2018-06-18T19:28:24.022Z,19.90
2018-06-18T19:30:56.628Z,19.90
2018-06-18T19:33:28.370Z,19.90
2018-06-18T19:35:56.791Z,19.90
2018-06-18T19:38:25.177Z,19.70
2018-06-18T19:40:53.590Z,19.70
2018-06-18T19:43:21.969Z,19.60
2018-06-18T19:45:53.552Z,19.60
2018-06-18T19:48:26.332Z,19.60
2018-06-18T19:50:54.747Z,19.60
2018-06-18T19:53:23.547Z,19.50
2018-06-18T19:55:51.985Z,19.40
2018-06-18T19:58:20.367Z,19.30
2018-06-18T20:00:51.441Z,19.30
2018-06-18T20:03:19.898Z,19.20
2018-06-18T20:05:49.600Z,19.10
2018-06-18T20:08:22.184Z,19.00
2018-06-18T20:10:50.634Z,19.00
2018-06-18T20:13:19.084Z,18.90
2018-06-18T20:15:48.217Z,18.90
2018-06-18T20:18:16.596Z,18.90
2018-06-18T20:20:45.029Z,18.90
2018-06-18T20:23:15.701Z,18.90
2018-06-18T20:25:54.464Z,18.90
2018-06-18T20:28:22.844Z,18.80
2018-06-18T20:30:51.279Z,18.70
2018-06-18T20:33:21.099Z,18.60
2018-06-18T20:35:53.930Z,18.70
2018-06-18T20:38:22.637Z,18.60
2018-06-18T20:40:51.058Z,18.50
2018-06-18T20:43:20.073Z,18.50
2018-06-18T20:45:51.123Z,18.40
2018-06-18T20:48:19.573Z,18.40
2018-06-18T20:50:48.337Z,18.30
2018-06-18T20:53:16.768Z,18.10
2018-06-18T20:55:45.319Z,18.10
2018-06-18T20:58:13.981Z,18.10
2018-06-18T21:00:42.378Z,18.10
2018-06-18T21:03:10.837Z,18.00
2018-06-18T21:05:39.241Z,17.90
2018-06-18T21:08:07.657Z,17.90
2018-06-18T21:10:36.173Z,17.80
2018-06-18T21:13:04.566Z,17.90
2018-06-18T21:15:32.940Z,17.90
2018-06-18T21:18:01.436Z,17.80
2018-06-18T21:20:29.828Z,17.80
2018-06-18T21:22:58.297Z,17.80
2018-06-18T21:27:54.855Z,17.80
2018-06-18T21:30:23.244Z,17.80
2018-06-18T21:32:51.697Z,17.80
2018-06-18T21:35:20.143Z,17.70
2018-06-18T21:37:48.533Z,17.70
2018-06-18T21:40:17.026Z,17.60
2018-06-18T21:42:45.402Z,17.60
2018-06-18T21:45:20.047Z,17.60
2018-06-18T21:47:48.959Z,17.50
2018-06-18T21:50:17.910Z,17.50
2018-06-18T21:52:46.363Z,17.50
2018-06-18T21:55:15.100Z,17.50
2018-06-18T21:57:43.492Z,17.40
2018-06-18T22:00:22.094Z,17.30
2018-06-18T22:02:50.575Z,17.20
2018-06-18T22:05:19.051Z,17.30
2018-06-18T22:07:47.450Z,17.30
2018-06-18T22:10:15.822Z,17.20
2018-06-18T22:12:44.278Z,17.20
2018-06-18T22:15:12.744Z,17.10
2018-06-18T22:17:41.193Z,17.10
2018-06-18T22:20:09.674Z,17.00
2018-06-18T22:22:38.154Z,17.00
2018-06-18T22:25:06.627Z,16.90
2018-06-18T22:27:35.045Z,16.90
2018-06-18T22:30:03.492Z,16.80
2018-06-18T22:32:31.976Z,16.80
2018-06-18T22:35:00.384Z,16.80
2018-06-18T22:39:56.912Z,16.80
2018-06-18T22:42:25.426Z,16.80
2018-06-18T22:44:53.970Z,16.80
2018-06-18T22:47:22.456Z,16.70
2018-06-18T22:49:50.907Z,16.70
2018-06-18T22:52:19.309Z,16.50
2018-06-18T22:54:49.071Z,16.40
2018-06-18T22:57:17.845Z,16.50
2018-06-18T22:59:46.927Z,16.50
2018-06-18T23:02:19.259Z,16.50
2018-06-18T23:04:47.842Z,16.50
2018-06-18T23:07:16.261Z,16.50
2018-06-18T23:09:44.752Z,16.50
2018-06-18T23:12:13.425Z,16.40
2018-06-18T23:14:41.877Z,16.40
2018-06-18T23:17:10.294Z,16.30
2018-06-18T23:19:38.702Z,16.20
2018-06-18T23:22:07.094Z,16.30
2018-06-18T23:24:35.573Z,16.30
2018-06-18T23:27:04.057Z,16.20
2018-06-18T23:29:32.449Z,16.20
2018-06-18T23:32:00.932Z,16.10
2018-06-18T23:34:29.345Z,16.20
2018-06-18T23:36:57.828Z,16.30
2018-06-18T23:39:26.264Z,16.10
2018-06-18T23:44:23.622Z,16.10
2018-06-18T23:49:20.337Z,16.00
2018-06-18T23:51:48.760Z,16.00
2018-06-18T23:54:17.179Z,16.00
2018-06-18T23:56:45.584Z,16.10
2018-06-18T23:59:13.981Z,16.00
